sensor_id;sensor_type;location;lat;lon;timestamp;pressure;altitude;pressure_sealevel;temperature;humidity
13015;BME280;6573;57.696;11.950;2024-01-06T00:01:56;101673.25;;;-6.08;100.00
13015;BME280;6573;57.696;11.950;2024-01-06T00:04:36;101672.09;;;-6.23;100.00
13015;BME280;6573;57.696;11.950;2024-01-06T00:07:04;101638.81;;;-6.44;100.00
13015;BME280;6573;57.696;11.950;2024-01-06T00:09:36;101597.28;;;-6.74;100.00
13015;BME280;6573;57.696;11.950;2024-01-06T00:12:25;101583.81;;;-6.83;100.00
13015;BME280;6573;57.696;11.950;2024-01-06T00:15:02;101629.25;;;-6.69;100.00
13015;BME280;6573;57.696;11.950;2024-01-06T00:17:33;101680.25;;;-6.38;100.00
13015;BME280;6573;57.696;11.950;2024-01-06T00:20:03;101666.66;;;-6.37;100.00
13015;BME280;6573;57.696;11.950;2024-01-06T00:22:32;101636.31;;;-6.54;100.00
13015;BME280;6573;57.696;11.950;2024-01-06T00:25:02;101706.78;;;-6.26;100.00
13015;BME280;6573;57.696;11.950;2024-01-06T00:27:31;101653.22;;;-6.57;100.00
13015;BME280;6573;57.696;11.950;2024-01-06T00:30:01;101646.56;;;-6.54;100.00
13015;BME280;6573;57.696;11.950;2024-01-06T00:32:30;101526.63;;;-7.27;100.00
13015;BME280;6573;57.696;11.950;2024-01-06T00:35:04;101646.34;;;-6.57;100.00
13015;BME280;6573;57.696;11.950;2024-01-06T00:37:32;101725.72;;;-6.24;100.00
13015;BME280;6573;57.696;11.950;2024-01-06T00:40:04;101511.94;;;-7.29;100.00
13015;BME280;6573;57.696;11.950;2024-01-06T00:42:33;101731.09;;;-6.21;100.00
13015;BME280;6573;57.696;11.950;2024-01-06T00:45:02;101730.47;;;-6.07;100.00
13015;BME280;6573;57.696;11.950;2024-01-06T00:47:33;101677.16;;;-6.34;100.00
13015;BME280;6573;57.696;11.950;2024-01-06T00:50:02;101728.94;;;-6.05;100.00
13015;BME280;6573;57.696;11.950;2024-01-06T00:52:32;101596.69;;;-7.03;100.00
13015;BME280;6573;57.696;11.950;2024-01-06T00:55:03;101639.28;;;-6.82;100.00
13015;BME280;6573;57.696;11.950;2024-01-06T00:57:34;101722.41;;;-6.23;100.00
13015;BME280;6573;57.696;11.950;2024-01-06T01:00:12;101582.31;;;-6.91;100.00
13015;BME280;6573;57.696;11.950;2024-01-06T01:02:54;101661.44;;;-6.61;100.00
13015;BME280;6573;57.696;11.950;2024-01-06T01:05:26;101648.53;;;-6.40;100.00
13015;BME280;6573;57.696;11.950;2024-01-06T01:08:00;101589.94;;;-6.81;100.00
13015;BME280;6573;57.696;11.950;2024-01-06T01:10:39;101766.69;;;-6.24;100.00
13015;BME280;6573;57.696;11.950;2024-01-06T01:13:23;101769.69;;;-6.08;100.00
13015;BME280;6573;57.696;11.950;2024-01-06T01:15:55;101638.47;;;-6.71;100.00
13015;BME280;6573;57.696;11.950;2024-01-06T01:18:32;101598.28;;;-7.15;100.00
13015;BME280;6573;57.696;11.950;2024-01-06T01:21:04;101483.53;;;-7.75;100.00
13015;BME280;6573;57.696;11.950;2024-01-06T01:23:33;101747.50;;;-6.29;100.00
13015;BME280;6573;57.696;11.950;2024-01-06T01:26:05;101746.00;;;-6.37;100.00
13015;BME280;6573;57.696;11.950;2024-01-06T01:28:34;101646.28;;;-7.01;100.00
13015;BME280;6573;57.696;11.950;2024-01-06T01:31:05;101744.22;;;-6.60;100.00
13015;BME280;6573;57.696;11.950;2024-01-06T01:33:38;101749.97;;;-6.63;100.00
13015;BME280;6573;57.696;11.950;2024-01-06T01:36:13;101670.69;;;-7.04;100.00
13015;BME280;6573;57.696;11.950;2024-01-06T01:38:41;101751.28;;;-6.68;100.00
13015;BME280;6573;57.696;11.950;2024-01-06T01:41:12;101682.88;;;-7.12;100.00
13015;BME280;6573;57.696;11.950;2024-01-06T01:43:45;101752.31;;;-6.76;100.00
13015;BME280;6573;57.696;11.950;2024-01-06T01:46:25;101717.13;;;-7.10;100.00
13015;BME280;6573;57.696;11.950;2024-01-06T01:48:55;101644.13;;;-7.48;100.00
13015;BME280;6573;57.696;11.950;2024-01-06T01:51:33;101770.44;;;-6.63;100.00
13015;BME280;6573;57.696;11.950;2024-01-06T01:54:03;101729.63;;;-7.03;100.00
13015;BME280;6573;57.696;11.950;2024-01-06T01:56:36;101697.22;;;-7.24;100.00
13015;BME280;6573;57.696;11.950;2024-01-06T01:59:09;101778.63;;;-6.67;100.00
13015;BME280;6573;57.696;11.950;2024-01-06T02:01:39;101801.00;;;-6.64;100.00
13015;BME280;6573;57.696;11.950;2024-01-06T02:04:08;101735.75;;;-6.91;100.00
13015;BME280;6573;57.696;11.950;2024-01-06T02:06:37;101795.72;;;-6.45;100.00
13015;BME280;6573;57.696;11.950;2024-01-06T02:09:08;101763.91;;;-6.37;100.00
13015;BME280;6573;57.696;11.950;2024-01-06T02:11:38;101730.38;;;-6.30;100.00
13015;BME280;6573;57.696;11.950;2024-01-06T02:14:07;101555.38;;;-7.29;100.00
13015;BME280;6573;57.696;11.950;2024-01-06T02:16:38;101654.28;;;-6.65;100.00
13015;BME280;6573;57.696;11.950;2024-01-06T02:19:09;101728.94;;;-6.48;100.00
13015;BME280;6573;57.696;11.950;2024-01-06T02:21:41;101798.94;;;-6.26;100.00
13015;BME280;6573;57.696;11.950;2024-01-06T02:24:12;101790.97;;;-6.19;100.00
13015;BME280;6573;57.696;11.950;2024-01-06T02:26:45;101751.50;;;-6.65;100.00
13015;BME280;6573;57.696;11.950;2024-01-06T02:29:13;101745.66;;;-6.42;100.00
13015;BME280;6573;57.696;11.950;2024-01-06T02:31:41;101661.28;;;-6.84;100.00
13015;BME280;6573;57.696;11.950;2024-01-06T02:34:11;101643.69;;;-6.91;100.00
13015;BME280;6573;57.696;11.950;2024-01-06T02:36:42;101750.63;;;-6.33;100.00
13015;BME280;6573;57.696;11.950;2024-01-06T02:39:13;101693.16;;;-6.59;100.00
13015;BME280;6573;57.696;11.950;2024-01-06T02:41:42;101807.50;;;-6.16;100.00
13015;BME280;6573;57.696;11.950;2024-01-06T02:44:10;101723.53;;;-6.73;100.00
13015;BME280;6573;57.696;11.950;2024-01-06T02:46:40;101796.69;;;-6.33;100.00
13015;BME280;6573;57.696;11.950;2024-01-06T02:49:09;101803.47;;;-6.12;100.00
13015;BME280;6573;57.696;11.950;2024-01-06T02:51:41;101796.00;;;-5.99;100.00
13015;BME280;6573;57.696;11.950;2024-01-06T02:54:11;101731.78;;;-6.55;100.00
13015;BME280;6573;57.696;11.950;2024-01-06T02:56:41;101749.06;;;-6.31;100.00
13015;BME280;6573;57.696;11.950;2024-01-06T02:59:09;101791.22;;;-6.16;100.00
13015;BME280;6573;57.696;11.950;2024-01-06T03:01:38;101803.03;;;-6.18;100.00
13015;BME280;6573;57.696;11.950;2024-01-06T03:04:07;101809.13;;;-6.38;100.00
13015;BME280;6573;57.696;11.950;2024-01-06T03:06:36;101814.56;;;-6.23;100.00
13015;BME280;6573;57.696;11.950;2024-01-06T03:09:05;101811.03;;;-6.35;100.00
13015;BME280;6573;57.696;11.950;2024-01-06T03:11:36;101794.16;;;-6.43;100.00
13015;BME280;6573;57.696;11.950;2024-01-06T03:14:04;101787.50;;;-6.41;100.00
13015;BME280;6573;57.696;11.950;2024-01-06T03:16:33;101695.06;;;-6.88;100.00
13015;BME280;6573;57.696;11.950;2024-01-06T03:19:02;101768.94;;;-6.71;100.00
13015;BME280;6573;57.696;11.950;2024-01-06T03:21:30;101800.63;;;-6.69;100.00
13015;BME280;6573;57.696;11.950;2024-01-06T03:23:59;101828.09;;;-6.56;100.00
13015;BME280;6573;57.696;11.950;2024-01-06T03:26:27;101738.59;;;-7.08;100.00
13015;BME280;6573;57.696;11.950;2024-01-06T03:28:58;101743.94;;;-6.95;100.00
13015;BME280;6573;57.696;11.950;2024-01-06T03:31:26;101806.41;;;-6.39;100.00
13015;BME280;6573;57.696;11.950;2024-01-06T03:33:55;101818.19;;;-6.10;100.00
13015;BME280;6573;57.696;11.950;2024-01-06T03:36:24;101735.63;;;-6.61;100.00
13015;BME280;6573;57.696;11.950;2024-01-06T03:38:53;101775.47;;;-6.42;100.00
13015;BME280;6573;57.696;11.950;2024-01-06T03:41:22;101842.69;;;-6.13;100.00
13015;BME280;6573;57.696;11.950;2024-01-06T03:43:51;101692.03;;;-7.04;100.00
13015;BME280;6573;57.696;11.950;2024-01-06T03:46:21;101773.84;;;-6.52;100.00
13015;BME280;6573;57.696;11.950;2024-01-06T03:48:50;101830.50;;;-6.06;100.00
13015;BME280;6573;57.696;11.950;2024-01-06T03:51:19;101764.25;;;-6.54;100.00
13015;BME280;6573;57.696;11.950;2024-01-06T03:53:49;101854.66;;;-6.02;100.00
13015;BME280;6573;57.696;11.950;2024-01-06T03:56:17;101849.25;;;-5.95;100.00
13015;BME280;6573;57.696;11.950;2024-01-06T03:58:46;101855.91;;;-5.97;100.00
13015;BME280;6573;57.696;11.950;2024-01-06T04:01:15;101837.56;;;-6.13;100.00
13015;BME280;6573;57.696;11.950;2024-01-06T04:03:45;101864.38;;;-5.98;100.00
13015;BME280;6573;57.696;11.950;2024-01-06T04:06:13;101783.94;;;-6.43;100.00
13015;BME280;6573;57.696;11.950;2024-01-06T04:08:42;101849.56;;;-6.12;100.00
13015;BME280;6573;57.696;11.950;2024-01-06T04:11:10;101808.16;;;-6.50;100.00
13015;BME280;6573;57.696;11.950;2024-01-06T04:13:39;101841.22;;;-6.31;100.00
13015;BME280;6573;57.696;11.950;2024-01-06T04:16:07;101755.88;;;-6.74;100.00
13015;BME280;6573;57.696;11.950;2024-01-06T04:18:36;101864.22;;;-6.21;100.00
13015;BME280;6573;57.696;11.950;2024-01-06T04:21:06;101858.84;;;-6.24;100.00
13015;BME280;6573;57.696;11.950;2024-01-06T04:23:35;101874.78;;;-6.38;100.00
13015;BME280;6573;57.696;11.950;2024-01-06T04:26:04;101782.28;;;-6.85;100.00
13015;BME280;6573;57.696;11.950;2024-01-06T04:28:33;101848.84;;;-6.53;100.00
13015;BME280;6573;57.696;11.950;2024-01-06T04:31:02;101754.03;;;-7.06;100.00
13015;BME280;6573;57.696;11.950;2024-01-06T04:33:33;101740.91;;;-7.31;100.00
13015;BME280;6573;57.696;11.950;2024-01-06T04:36:03;101885.56;;;-6.52;100.00
13015;BME280;6573;57.696;11.950;2024-01-06T04:38:34;101865.34;;;-6.60;100.00
13015;BME280;6573;57.696;11.950;2024-01-06T04:41:03;101873.78;;;-6.50;100.00
13015;BME280;6573;57.696;11.950;2024-01-06T04:43:32;101761.88;;;-7.25;100.00
13015;BME280;6573;57.696;11.950;2024-01-06T04:46:01;101819.13;;;-6.93;100.00
13015;BME280;6573;57.696;11.950;2024-01-06T04:48:29;101860.00;;;-6.73;100.00
13015;BME280;6573;57.696;11.950;2024-01-06T04:50:59;101823.19;;;-6.85;100.00
13015;BME280;6573;57.696;11.950;2024-01-06T04:53:30;101878.38;;;-6.46;100.00
13015;BME280;6573;57.696;11.950;2024-01-06T04:56:00;101875.06;;;-6.55;100.00
13015;BME280;6573;57.696;11.950;2024-01-06T04:58:29;101877.59;;;-6.45;100.00
13015;BME280;6573;57.696;11.950;2024-01-06T05:00:57;101885.09;;;-6.27;100.00
13015;BME280;6573;57.696;11.950;2024-01-06T05:03:27;101768.44;;;-6.87;100.00
13015;BME280;6573;57.696;11.950;2024-01-06T05:05:56;101833.31;;;-6.44;100.00
13015;BME280;6573;57.696;11.950;2024-01-06T05:08:25;101885.97;;;-6.16;100.00
13015;BME280;6573;57.696;11.950;2024-01-06T05:10:57;101865.78;;;-6.33;100.00
13015;BME280;6573;57.696;11.950;2024-01-06T05:13:27;101843.38;;;-6.68;100.00
13015;BME280;6573;57.696;11.950;2024-01-06T05:15:56;101844.66;;;-6.73;100.00
13015;BME280;6573;57.696;11.950;2024-01-06T05:18:25;101764.28;;;-7.27;100.00
13015;BME280;6573;57.696;11.950;2024-01-06T05:20:54;101889.41;;;-6.47;100.00
13015;BME280;6573;57.696;11.950;2024-01-06T05:23:23;101894.00;;;-6.53;100.00
13015;BME280;6573;57.696;11.950;2024-01-06T05:25:55;101850.16;;;-6.78;100.00
13015;BME280;6573;57.696;11.950;2024-01-06T05:28:23;101898.66;;;-6.80;100.00
13015;BME280;6573;57.696;11.950;2024-01-06T05:31:06;101835.22;;;-7.24;100.00
13015;BME280;6573;57.696;11.950;2024-01-06T05:33:50;101758.81;;;-7.41;100.00
13015;BME280;6573;57.696;11.950;2024-01-06T05:36:19;101744.28;;;-7.52;100.00
13015;BME280;6573;57.696;11.950;2024-01-06T05:38:48;101894.63;;;-6.56;100.00
13015;BME280;6573;57.696;11.950;2024-01-06T05:41:19;101833.44;;;-7.15;100.00
13015;BME280;6573;57.696;11.950;2024-01-06T05:43:48;101901.44;;;-6.87;100.00
13015;BME280;6573;57.696;11.950;2024-01-06T05:46:26;101852.38;;;-7.03;100.00
13015;BME280;6573;57.696;11.950;2024-01-06T05:48:55;101926.25;;;-6.66;100.00
13015;BME280;6573;57.696;11.950;2024-01-06T05:51:26;101887.88;;;-6.66;100.00
13015;BME280;6573;57.696;11.950;2024-01-06T05:53:58;101841.13;;;-7.15;100.00
13015;BME280;6573;57.696;11.950;2024-01-06T05:56:41;101934.94;;;-6.64;100.00
13015;BME280;6573;57.696;11.950;2024-01-06T05:59:10;101715.41;;;-7.92;100.00
13015;BME280;6573;57.696;11.950;2024-01-06T06:01:42;101853.13;;;-7.14;100.00
13015;BME280;6573;57.696;11.950;2024-01-06T06:04:23;101895.31;;;-6.89;100.00
13015;BME280;6573;57.696;11.950;2024-01-06T06:06:52;101911.16;;;-6.73;100.00
13015;BME280;6573;57.696;11.950;2024-01-06T06:09:24;101839.56;;;-6.93;100.00
13015;BME280;6573;57.696;11.950;2024-01-06T06:11:55;101956.38;;;-6.21;100.00
13015;BME280;6573;57.696;11.950;2024-01-06T06:14:36;101911.94;;;-6.84;100.00
13015;BME280;6573;57.696;11.950;2024-01-06T06:17:10;101981.88;;;-6.23;100.00
13015;BME280;6573;57.696;11.950;2024-01-06T06:19:40;101940.41;;;-6.39;100.00
13015;BME280;6573;57.696;11.950;2024-01-06T06:22:25;101915.00;;;-6.68;100.00
13015;BME280;6573;57.696;11.950;2024-01-06T06:24:59;102008.25;;;-6.44;100.00
13015;BME280;6573;57.696;11.950;2024-01-06T06:27:36;101997.25;;;-6.53;100.00
13015;BME280;6573;57.696;11.950;2024-01-06T06:30:08;101990.72;;;-6.60;100.00
13015;BME280;6573;57.696;11.950;2024-01-06T06:32:39;101962.81;;;-6.67;100.00
13015;BME280;6573;57.696;11.950;2024-01-06T06:35:09;101822.69;;;-7.51;100.00
13015;BME280;6573;57.696;11.950;2024-01-06T06:37:41;101888.91;;;-7.14;100.00
13015;BME280;6573;57.696;11.950;2024-01-06T06:40:10;101992.50;;;-6.38;100.00
13015;BME280;6573;57.696;11.950;2024-01-06T06:42:41;101897.38;;;-6.95;100.00
13015;BME280;6573;57.696;11.950;2024-01-06T06:45:16;102018.09;;;-6.38;100.00
13015;BME280;6573;57.696;11.950;2024-01-06T06:55:03;101933.16;;;-6.95;100.00
13015;BME280;6573;57.696;11.950;2024-01-06T06:57:32;101867.19;;;-7.09;100.00
13015;BME280;6573;57.696;11.950;2024-01-06T07:00:09;101823.97;;;-7.56;100.00
13015;BME280;6573;57.696;11.950;2024-01-06T07:02:48;101843.09;;;-7.61;100.00
13015;BME280;6573;57.696;11.950;2024-01-06T07:05:53;102043.69;;;-6.59;100.00
13015;BME280;6573;57.696;11.950;2024-01-06T07:08:36;102045.72;;;-6.54;100.00
13015;BME280;6573;57.696;11.950;2024-01-06T07:11:07;101960.75;;;-7.11;100.00
13015;BME280;6573;57.696;11.950;2024-01-06T07:13:35;101942.56;;;-7.24;100.00
13015;BME280;6573;57.696;11.950;2024-01-06T07:16:05;101979.91;;;-7.16;100.00
13015;BME280;6573;57.696;11.950;2024-01-06T07:18:44;102083.31;;;-6.74;100.00
13015;BME280;6573;57.696;11.950;2024-01-06T07:21:13;102079.47;;;-6.79;100.00
13015;BME280;6573;57.696;11.950;2024-01-06T07:23:43;102026.72;;;-6.97;100.00
13015;BME280;6573;57.696;11.950;2024-01-06T07:26:13;102069.03;;;-6.41;100.00
13015;BME280;6573;57.696;11.950;2024-01-06T07:28:41;102021.16;;;-6.83;100.00
13015;BME280;6573;57.696;11.950;2024-01-06T07:31:10;102051.47;;;-6.57;100.00
13015;BME280;6573;57.696;11.950;2024-01-06T07:33:38;101946.19;;;-7.22;100.00
13015;BME280;6573;57.696;11.950;2024-01-06T07:36:07;102063.38;;;-6.68;100.00
13015;BME280;6573;57.696;11.950;2024-01-06T07:38:36;102083.88;;;-6.47;100.00
13015;BME280;6573;57.696;11.950;2024-01-06T07:41:06;102045.94;;;-6.92;100.00
13015;BME280;6573;57.696;11.950;2024-01-06T07:43:38;101948.28;;;-7.47;100.00
13015;BME280;6573;57.696;11.950;2024-01-06T07:46:06;102094.31;;;-6.65;100.00
13015;BME280;6573;57.696;11.950;2024-01-06T07:48:36;102116.06;;;-6.70;100.00
13015;BME280;6573;57.696;11.950;2024-01-06T07:51:05;102119.13;;;-6.74;100.00
13015;BME280;6573;57.696;11.950;2024-01-06T07:53:34;102118.63;;;-6.70;100.00
13015;BME280;6573;57.696;11.950;2024-01-06T07:56:03;102108.41;;;-6.80;100.00
13015;BME280;6573;57.696;11.950;2024-01-06T07:58:32;102134.19;;;-6.87;100.00
13015;BME280;6573;57.696;11.950;2024-01-06T08:01:03;102139.31;;;-6.77;100.00
13015;BME280;6573;57.696;11.950;2024-01-06T08:03:32;102048.84;;;-7.36;100.00
13015;BME280;6573;57.696;11.950;2024-01-06T08:06:00;102092.19;;;-6.99;100.00
13015;BME280;6573;57.696;11.950;2024-01-06T08:08:29;102090.63;;;-7.07;100.00
13015;BME280;6573;57.696;11.950;2024-01-06T08:10:58;102045.28;;;-7.38;100.00
13015;BME280;6573;57.696;11.950;2024-01-06T08:13:27;102159.88;;;-6.46;100.00
13015;BME280;6573;57.696;11.950;2024-01-06T08:15:56;102165.09;;;-6.65;100.00
13015;BME280;6573;57.696;11.950;2024-01-06T08:18:26;102161.59;;;-6.76;100.00
13015;BME280;6573;57.696;11.950;2024-01-06T08:20:54;102045.22;;;-7.19;100.00
13015;BME280;6573;57.696;11.950;2024-01-06T08:23:23;102167.19;;;-6.90;100.00
13015;BME280;6573;57.696;11.950;2024-01-06T08:25:52;102128.69;;;-7.20;100.00
13015;BME280;6573;57.696;11.950;2024-01-06T08:28:21;102185.28;;;-6.97;100.00
13015;BME280;6573;57.696;11.950;2024-01-06T08:30:50;102179.53;;;-6.94;100.00
13015;BME280;6573;57.696;11.950;2024-01-06T08:33:19;102141.31;;;-7.22;100.00
13015;BME280;6573;57.696;11.950;2024-01-06T08:35:50;102139.13;;;-7.27;100.00
13015;BME280;6573;57.696;11.950;2024-01-06T08:38:18;102180.16;;;-6.97;100.00
13015;BME280;6573;57.696;11.950;2024-01-06T08:40:49;102169.41;;;-7.03;100.00
13015;BME280;6573;57.696;11.950;2024-01-06T08:43:18;102126.88;;;-7.21;100.00
13015;BME280;6573;57.696;11.950;2024-01-06T08:45:47;102079.00;;;-7.42;100.00
13015;BME280;6573;57.696;11.950;2024-01-06T08:48:18;102167.56;;;-7.14;100.00
13015;BME280;6573;57.696;11.950;2024-01-06T08:50:52;102180.78;;;-6.99;100.00
13015;BME280;6573;57.696;11.950;2024-01-06T08:53:41;102200.19;;;-6.83;100.00
13015;BME280;6573;57.696;11.950;2024-01-06T08:56:38;102197.41;;;-6.76;100.00
13015;BME280;6573;57.696;11.950;2024-01-06T08:59:08;102079.00;;;-7.42;100.00
13015;BME280;6573;57.696;11.950;2024-01-06T09:01:39;102158.13;;;-7.15;100.00
13015;BME280;6573;57.696;11.950;2024-01-06T09:04:07;102058.53;;;-7.71;100.00
13015;BME280;6573;57.696;11.950;2024-01-06T09:06:39;102210.72;;;-6.80;100.00
13015;BME280;6573;57.696;11.950;2024-01-06T09:09:08;102119.09;;;-7.22;100.00
13015;BME280;6573;57.696;11.950;2024-01-06T09:11:39;102124.00;;;-7.34;100.00
13015;BME280;6573;57.696;11.950;2024-01-06T09:14:09;102126.31;;;-7.37;100.00
13015;BME280;6573;57.696;11.950;2024-01-06T09:16:38;102228.38;;;-6.73;100.00
13015;BME280;6573;57.696;11.950;2024-01-06T09:19:13;102172.56;;;-7.15;100.00
13015;BME280;6573;57.696;11.950;2024-01-06T09:21:44;102233.41;;;-6.93;100.00
13015;BME280;6573;57.696;11.950;2024-01-06T09:24:12;102234.47;;;-6.81;100.00
13015;BME280;6573;57.696;11.950;2024-01-06T09:26:43;102229.88;;;-6.75;100.00
13015;BME280;6573;57.696;11.950;2024-01-06T09:29:27;102233.63;;;-6.71;100.00
13015;BME280;6573;57.696;11.950;2024-01-06T09:31:56;102058.91;;;-7.76;100.00
13015;BME280;6573;57.696;11.950;2024-01-06T09:34:25;102237.53;;;-6.85;100.00
13015;BME280;6573;57.696;11.950;2024-01-06T09:37:07;102217.56;;;-6.89;100.00
13015;BME280;6573;57.696;11.950;2024-01-06T09:39:42;102207.94;;;-6.91;100.00
13015;BME280;6573;57.696;11.950;2024-01-06T09:42:10;102249.59;;;-6.74;100.00
13015;BME280;6573;57.696;11.950;2024-01-06T09:44:42;102254.84;;;-6.72;100.00
13015;BME280;6573;57.696;11.950;2024-01-06T09:47:22;102248.03;;;-6.82;100.00
13015;BME280;6573;57.696;11.950;2024-01-06T09:49:53;102198.94;;;-6.78;100.00
13015;BME280;6573;57.696;11.950;2024-01-06T09:53:10;102264.31;;;-6.52;100.00
13015;BME280;6573;57.696;11.950;2024-01-06T09:56:11;102008.69;;;-8.05;100.00
13015;BME280;6573;57.696;11.950;2024-01-06T09:59:14;101995.41;;;-8.01;100.00
13015;BME280;6573;57.696;11.950;2024-01-06T10:05:42;102259.88;;;-6.64;100.00
13015;BME280;6573;57.696;11.950;2024-01-06T10:08:46;102134.72;;;-7.38;100.00
13015;BME280;6573;57.696;11.950;2024-01-06T10:11:42;102158.00;;;-7.35;100.00
13015;BME280;6573;57.696;11.950;2024-01-06T10:16:08;102267.06;;;-6.60;100.00
13015;BME280;6573;57.696;11.950;2024-01-06T10:42:34;102196.97;;;-6.90;100.00
13015;BME280;6573;57.696;11.950;2024-01-06T11:18:56;102300.34;;;-5.72;100.00
13015;BME280;6573;57.696;11.950;2024-01-06T11:22:44;102303.81;;;-5.61;100.00
13015;BME280;6573;57.696;11.950;2024-01-06T12:58:43;102336.28;;;-4.91;100.00
13015;BME280;6573;57.696;11.950;2024-01-06T22:51:52;102643.84;;;-8.18;100.00
13015;BME280;6573;57.696;11.950;2024-01-06T23:51:51;102720.44;;;-8.18;100.00
